Weather at Thunderhead Airport [CLOSED]

Public forecast

Using degrees Fahrenheit for public forecast. Weather courtesy of forecast.io.

Closest aviation weather report (METAR) to Thunderhead Airport

Closest report is Davis Monthan Air Force Base, 8.0 nm (14.8 km) WNW. Retrieved 2021/06/20 01:58 UTC (33 minutes ago):

KDMA 200158Z AUTO 32014KT 10SM CLR 41/03 A2969 RMK AO2 SLP998 T04090032

Closest aviation forecast (TAF) to Thunderhead Airport

Closest forecast is Davis Monthan Air Force Base, 8.0 nm (14.8 km) WNW. Retrieved 2021/06/19 22:07 UTC (4 hours ago):

TAF KDMA 192205Z 1922/2104 30012G18KT 9999 FEW160 QNH2966INS BECMG 2001/2002 VRB06KT 9999 SKC QNH2965INS BECMG 2017/2018 33012G20KT 9999 FEW150 QNH2968INS TX44/1922Z TN29/2011Z